sensor_id;sensor_type;location;lat;lon;timestamp;P1;durP1;ratioP1;P2;durP2;ratioP2
23676;SDS011;31493;49.058;12.190;2023-04-20T00:01:51;8.80;;;6.20;;
23676;SDS011;31493;49.058;12.190;2023-04-20T00:04:18;10.52;;;7.35;;
23676;SDS011;31493;49.058;12.190;2023-04-20T00:06:45;10.02;;;7.00;;
23676;SDS011;31493;49.058;12.190;2023-04-20T00:09:13;11.10;;;7.63;;
23676;SDS011;31493;49.058;12.190;2023-04-20T00:11:41;11.98;;;7.10;;
23676;SDS011;31493;49.058;12.190;2023-04-20T00:14:09;11.50;;;7.68;;
23676;SDS011;31493;49.058;12.190;2023-04-20T00:16:36;10.65;;;7.43;;
23676;SDS011;31493;49.058;12.190;2023-04-20T00:19:03;12.63;;;8.52;;
23676;SDS011;31493;49.058;12.190;2023-04-20T00:21:31;14.90;;;8.00;;
23676;SDS011;31493;49.058;12.190;2023-04-20T00:23:59;10.43;;;8.25;;
23676;SDS011;31493;49.058;12.190;2023-04-20T00:26:26;12.57;;;8.32;;
23676;SDS011;31493;49.058;12.190;2023-04-20T00:28:53;18.23;;;12.40;;
23676;SDS011;31493;49.058;12.190;2023-04-20T00:31:21;17.30;;;10.35;;
23676;SDS011;31493;49.058;12.190;2023-04-20T00:33:48;28.80;;;17.98;;
23676;SDS011;31493;49.058;12.190;2023-04-20T00:36:15;21.02;;;12.95;;
23676;SDS011;31493;49.058;12.190;2023-04-20T00:38:42;22.98;;;13.35;;
23676;SDS011;31493;49.058;12.190;2023-04-20T00:41:09;37.92;;;21.48;;
23676;SDS011;31493;49.058;12.190;2023-04-20T00:43:36;34.72;;;23.08;;
23676;SDS011;31493;49.058;12.190;2023-04-20T00:46:03;14.80;;;11.23;;
23676;SDS011;31493;49.058;12.190;2023-04-20T00:48:32;27.90;;;19.65;;
23676;SDS011;31493;49.058;12.190;2023-04-20T00:51:00;21.52;;;14.82;;
23676;SDS011;31493;49.058;12.190;2023-04-20T00:53:27;24.98;;;16.70;;
23676;SDS011;31493;49.058;12.190;2023-04-20T00:55:55;26.90;;;17.73;;
23676;SDS011;31493;49.058;12.190;2023-04-20T00:58:22;67.80;;;34.97;;
23676;SDS011;31493;49.058;12.190;2023-04-20T01:00:49;22.35;;;15.02;;
23676;SDS011;31493;49.058;12.190;2023-04-20T01:03:16;31.27;;;24.23;;
23676;SDS011;31493;49.058;12.190;2023-04-20T01:05:45;32.55;;;20.52;;
23676;SDS011;31493;49.058;12.190;2023-04-20T01:08:12;31.05;;;19.88;;
23676;SDS011;31493;49.058;12.190;2023-04-20T01:10:39;32.55;;;19.88;;
23676;SDS011;31493;49.058;12.190;2023-04-20T01:13:06;17.77;;;12.60;;
23676;SDS011;31493;49.058;12.190;2023-04-20T01:15:33;14.60;;;11.18;;
23676;SDS011;31493;49.058;12.190;2023-04-20T01:18:00;16.42;;;12.32;;
23676;SDS011;31493;49.058;12.190;2023-04-20T01:20:27;14.85;;;10.73;;
23676;SDS011;31493;49.058;12.190;2023-04-20T01:22:56;14.88;;;10.80;;
23676;SDS011;31493;49.058;12.190;2023-04-20T01:25:23;18.63;;;9.80;;
23676;SDS011;31493;49.058;12.190;2023-04-20T01:27:50;14.70;;;9.63;;
23676;SDS011;31493;49.058;12.190;2023-04-20T01:30:17;13.75;;;10.00;;
23676;SDS011;31493;49.058;12.190;2023-04-20T01:32:44;17.02;;;10.43;;
23676;SDS011;31493;49.058;12.190;2023-04-20T01:35:11;15.73;;;9.82;;
23676;SDS011;31493;49.058;12.190;2023-04-20T01:37:38;14.05;;;10.95;;
23676;SDS011;31493;49.058;12.190;2023-04-20T01:40:09;15.43;;;9.82;;
23676;SDS011;31493;49.058;12.190;2023-04-20T01:42:37;18.88;;;11.00;;
23676;SDS011;31493;49.058;12.190;2023-04-20T01:45:05;14.55;;;10.90;;
23676;SDS011;31493;49.058;12.190;2023-04-20T01:47:32;15.68;;;10.85;;
23676;SDS011;31493;49.058;12.190;2023-04-20T01:50:00;14.88;;;10.18;;
23676;SDS011;31493;49.058;12.190;2023-04-20T01:52:27;14.93;;;10.00;;
23676;SDS011;31493;49.058;12.190;2023-04-20T01:54:54;15.70;;;10.13;;
23676;SDS011;31493;49.058;12.190;2023-04-20T01:57:22;17.05;;;10.98;;
23676;SDS011;31493;49.058;12.190;2023-04-20T01:59:49;14.18;;;10.07;;
23676;SDS011;31493;49.058;12.190;2023-04-20T02:02:16;15.68;;;10.80;;
23676;SDS011;31493;49.058;12.190;2023-04-20T02:04:43;14.73;;;10.45;;
23676;SDS011;31493;49.058;12.190;2023-04-20T02:07:10;17.52;;;11.73;;
23676;SDS011;31493;49.058;12.190;2023-04-20T02:09:37;17.88;;;11.10;;
23676;SDS011;31493;49.058;12.190;2023-04-20T02:12:04;17.52;;;10.88;;
23676;SDS011;31493;49.058;12.190;2023-04-20T02:14:33;15.70;;;10.65;;
23676;SDS011;31493;49.058;12.190;2023-04-20T02:17:00;15.93;;;11.10;;
23676;SDS011;31493;49.058;12.190;2023-04-20T02:19:27;16.52;;;10.57;;
23676;SDS011;31493;49.058;12.190;2023-04-20T02:21:55;19.67;;;10.57;;
23676;SDS011;31493;49.058;12.190;2023-04-20T02:24:22;19.27;;;11.00;;
23676;SDS011;31493;49.058;12.190;2023-04-20T02:26:49;16.10;;;11.60;;
23676;SDS011;31493;49.058;12.190;2023-04-20T02:29:16;16.23;;;11.45;;
23676;SDS011;31493;49.058;12.190;2023-04-20T02:31:44;15.90;;;10.90;;
23676;SDS011;31493;49.058;12.190;2023-04-20T02:34:11;15.35;;;11.45;;
23676;SDS011;31493;49.058;12.190;2023-04-20T02:36:38;17.48;;;11.52;;
23676;SDS011;31493;49.058;12.190;2023-04-20T02:39:05;14.82;;;10.75;;
23676;SDS011;31493;49.058;12.190;2023-04-20T02:41:32;17.17;;;11.75;;
23676;SDS011;31493;49.058;12.190;2023-04-20T02:44:00;17.15;;;11.60;;
23676;SDS011;31493;49.058;12.190;2023-04-20T02:46:27;15.25;;;11.07;;
23676;SDS011;31493;49.058;12.190;2023-04-20T02:48:55;19.15;;;11.10;;
23676;SDS011;31493;49.058;12.190;2023-04-20T02:51:22;19.05;;;11.02;;
23676;SDS011;31493;49.058;12.190;2023-04-20T02:53:49;16.25;;;11.63;;
23676;SDS011;31493;49.058;12.190;2023-04-20T02:56:16;13.93;;;11.23;;
23676;SDS011;31493;49.058;12.190;2023-04-20T02:58:43;15.65;;;12.07;;
23676;SDS011;31493;49.058;12.190;2023-04-20T03:03:40;15.95;;;11.10;;
23676;SDS011;31493;49.058;12.190;2023-04-20T03:06:08;15.07;;;10.73;;
23676;SDS011;31493;49.058;12.190;2023-04-20T03:08:36;17.02;;;10.88;;
23676;SDS011;31493;49.058;12.190;2023-04-20T03:11:03;17.80;;;11.30;;
23676;SDS011;31493;49.058;12.190;2023-04-20T03:13:30;16.45;;;11.65;;
23676;SDS011;31493;49.058;12.190;2023-04-20T03:15:57;16.17;;;10.90;;
23676;SDS011;31493;49.058;12.190;2023-04-20T03:18:24;14.23;;;11.02;;
23676;SDS011;31493;49.058;12.190;2023-04-20T03:20:51;16.10;;;10.95;;
23676;SDS011;31493;49.058;12.190;2023-04-20T03:23:20;17.48;;;11.15;;
23676;SDS011;31493;49.058;12.190;2023-04-20T03:25:47;15.90;;;11.50;;
23676;SDS011;31493;49.058;12.190;2023-04-20T03:28:14;19.25;;;11.52;;
23676;SDS011;31493;49.058;12.190;2023-04-20T03:30:41;14.75;;;10.95;;
23676;SDS011;31493;49.058;12.190;2023-04-20T03:33:08;16.90;;;11.43;;
23676;SDS011;31493;49.058;12.190;2023-04-20T03:35:36;16.48;;;10.60;;
23676;SDS011;31493;49.058;12.190;2023-04-20T03:38:03;17.83;;;10.93;;
23676;SDS011;31493;49.058;12.190;2023-04-20T03:40:32;19.70;;;12.32;;
23676;SDS011;31493;49.058;12.190;2023-04-20T03:42:59;16.45;;;11.57;;
23676;SDS011;31493;49.058;12.190;2023-04-20T03:45:26;18.27;;;11.82;;
23676;SDS011;31493;49.058;12.190;2023-04-20T03:47:53;18.48;;;12.40;;
23676;SDS011;31493;49.058;12.190;2023-04-20T03:50:20;16.88;;;12.10;;
23676;SDS011;31493;49.058;12.190;2023-04-20T03:52:47;20.20;;;12.57;;
23676;SDS011;31493;49.058;12.190;2023-04-20T03:55:14;15.68;;;11.45;;
23676;SDS011;31493;49.058;12.190;2023-04-20T03:57:42;22.42;;;10.65;;
23676;SDS011;31493;49.058;12.190;2023-04-20T04:00:11;15.18;;;11.60;;
23676;SDS011;31493;49.058;12.190;2023-04-20T04:02:38;15.60;;;11.20;;
23676;SDS011;31493;49.058;12.190;2023-04-20T04:05:06;17.20;;;10.77;;
23676;SDS011;31493;49.058;12.190;2023-04-20T04:07:33;18.30;;;11.75;;
23676;SDS011;31493;49.058;12.190;2023-04-20T04:10:00;16.77;;;10.75;;
23676;SDS011;31493;49.058;12.190;2023-04-20T04:12:29;16.83;;;12.35;;
23676;SDS011;31493;49.058;12.190;2023-04-20T04:14:57;17.55;;;12.35;;
23676;SDS011;31493;49.058;12.190;2023-04-20T04:17:24;17.40;;;12.07;;
23676;SDS011;31493;49.058;12.190;2023-04-20T04:19:51;16.70;;;12.13;;
23676;SDS011;31493;49.058;12.190;2023-04-20T04:22:18;16.20;;;12.00;;
23676;SDS011;31493;49.058;12.190;2023-04-20T04:24:45;17.90;;;13.20;;
23676;SDS011;31493;49.058;12.190;2023-04-20T04:27:13;19.50;;;12.90;;
23676;SDS011;31493;49.058;12.190;2023-04-20T04:29:40;19.10;;;12.77;;
23676;SDS011;31493;49.058;12.190;2023-04-20T04:32:10;18.20;;;12.88;;
23676;SDS011;31493;49.058;12.190;2023-04-20T04:34:38;17.23;;;12.15;;
23676;SDS011;31493;49.058;12.190;2023-04-20T04:37:08;15.95;;;12.00;;
23676;SDS011;31493;49.058;12.190;2023-04-20T04:39:35;14.63;;;10.90;;
23676;SDS011;31493;49.058;12.190;2023-04-20T04:42:03;16.70;;;11.57;;
23676;SDS011;31493;49.058;12.190;2023-04-20T04:44:30;16.95;;;12.20;;
23676;SDS011;31493;49.058;12.190;2023-04-20T04:46:57;18.33;;;11.90;;
23676;SDS011;31493;49.058;12.190;2023-04-20T04:49:26;14.93;;;11.30;;
23676;SDS011;31493;49.058;12.190;2023-04-20T04:51:54;18.50;;;11.77;;
23676;SDS011;31493;49.058;12.190;2023-04-20T04:54:21;15.20;;;11.32;;
23676;SDS011;31493;49.058;12.190;2023-04-20T04:56:48;14.40;;;11.10;;
23676;SDS011;31493;49.058;12.190;2023-04-20T04:59:15;17.08;;;11.93;;
23676;SDS011;31493;49.058;12.190;2023-04-20T05:01:42;15.30;;;11.25;;
23676;SDS011;31493;49.058;12.190;2023-04-20T05:04:09;16.33;;;11.50;;
23676;SDS011;31493;49.058;12.190;2023-04-20T05:06:37;18.17;;;12.57;;
23676;SDS011;31493;49.058;12.190;2023-04-20T05:09:05;17.58;;;12.35;;
23676;SDS011;31493;49.058;12.190;2023-04-20T05:11:32;16.77;;;12.52;;
23676;SDS011;31493;49.058;12.190;2023-04-20T05:13:59;19.02;;;14.02;;
23676;SDS011;31493;49.058;12.190;2023-04-20T05:16:27;20.90;;;14.13;;
23676;SDS011;31493;49.058;12.190;2023-04-20T05:18:54;21.13;;;14.43;;
23676;SDS011;31493;49.058;12.190;2023-04-20T05:21:21;18.30;;;13.25;;
23676;SDS011;31493;49.058;12.190;2023-04-20T05:23:49;20.23;;;13.35;;
23676;SDS011;31493;49.058;12.190;2023-04-20T05:26:16;18.40;;;13.50;;
23676;SDS011;31493;49.058;12.190;2023-04-20T05:28:43;18.30;;;14.30;;
23676;SDS011;31493;49.058;12.190;2023-04-20T05:31:10;21.25;;;14.20;;
23676;SDS011;31493;49.058;12.190;2023-04-20T05:33:37;18.38;;;13.80;;
23676;SDS011;31493;49.058;12.190;2023-04-20T05:36:07;23.27;;;14.07;;
23676;SDS011;31493;49.058;12.190;2023-04-20T05:38:34;17.27;;;12.73;;
23676;SDS011;31493;49.058;12.190;2023-04-20T05:41:03;17.52;;;12.50;;
23676;SDS011;31493;49.058;12.190;2023-04-20T05:43:31;19.88;;;12.85;;
23676;SDS011;31493;49.058;12.190;2023-04-20T05:45:58;20.38;;;12.35;;
23676;SDS011;31493;49.058;12.190;2023-04-20T05:48:25;16.17;;;12.57;;
23676;SDS011;31493;49.058;12.190;2023-04-20T05:50:52;18.45;;;12.55;;
23676;SDS011;31493;49.058;12.190;2023-04-20T05:53:19;19.38;;;13.45;;
23676;SDS011;31493;49.058;12.190;2023-04-20T05:55:46;17.15;;;11.75;;
23676;SDS011;31493;49.058;12.190;2023-04-20T05:58:15;17.77;;;12.75;;
23676;SDS011;31493;49.058;12.190;2023-04-20T06:00:42;16.95;;;12.45;;
23676;SDS011;31493;49.058;12.190;2023-04-20T06:03:09;16.38;;;12.50;;
23676;SDS011;31493;49.058;12.190;2023-04-20T06:05:36;19.00;;;13.50;;
23676;SDS011;31493;49.058;12.190;2023-04-20T06:08:03;18.80;;;13.07;;
23676;SDS011;31493;49.058;12.190;2023-04-20T06:10:30;16.70;;;12.52;;
23676;SDS011;31493;49.058;12.190;2023-04-20T06:12:58;16.43;;;12.10;;
23676;SDS011;31493;49.058;12.190;2023-04-20T06:15:27;17.88;;;11.98;;
23676;SDS011;31493;49.058;12.190;2023-04-20T06:17:54;18.42;;;12.95;;
23676;SDS011;31493;49.058;12.190;2023-04-20T06:20:21;19.38;;;13.18;;
23676;SDS011;31493;49.058;12.190;2023-04-20T06:22:48;18.35;;;13.35;;
23676;SDS011;31493;49.058;12.190;2023-04-20T06:25:15;20.23;;;13.40;;
23676;SDS011;31493;49.058;12.190;2023-04-20T06:27:42;18.10;;;13.52;;
23676;SDS011;31493;49.058;12.190;2023-04-20T06:30:09;19.52;;;12.02;;
23676;SDS011;31493;49.058;12.190;2023-04-20T06:32:39;18.15;;;12.80;;
23676;SDS011;31493;49.058;12.190;2023-04-20T06:35:06;21.13;;;12.93;;
23676;SDS011;31493;49.058;12.190;2023-04-20T06:37:33;17.77;;;12.32;;
23676;SDS011;31493;49.058;12.190;2023-04-20T06:40:01;21.30;;;13.52;;
23676;SDS011;31493;49.058;12.190;2023-04-20T06:42:30;18.05;;;13.15;;
23676;SDS011;31493;49.058;12.190;2023-04-20T06:44:57;17.92;;;12.77;;
23676;SDS011;31493;49.058;12.190;2023-04-20T06:47:24;18.00;;;13.52;;
23676;SDS011;31493;49.058;12.190;2023-04-20T06:49:57;18.00;;;13.30;;
23676;SDS011;31493;49.058;12.190;2023-04-20T06:52:24;18.50;;;12.55;;
23676;SDS011;31493;49.058;12.190;2023-04-20T06:54:51;20.08;;;13.45;;
23676;SDS011;31493;49.058;12.190;2023-04-20T06:57:18;17.67;;;12.60;;
23676;SDS011;31493;49.058;12.190;2023-04-20T06:59:45;19.35;;;13.40;;
23676;SDS011;31493;49.058;12.190;2023-04-20T07:02:12;23.88;;;13.40;;
23676;SDS011;31493;49.058;12.190;2023-04-20T07:04:39;18.50;;;13.43;;
23676;SDS011;31493;49.058;12.190;2023-04-20T07:07:08;18.48;;;12.95;;
23676;SDS011;31493;49.058;12.190;2023-04-20T07:09:35;17.25;;;12.95;;
23676;SDS011;31493;49.058;12.190;2023-04-20T07:12:02;18.10;;;13.20;;
23676;SDS011;31493;49.058;12.190;2023-04-20T07:14:29;21.05;;;13.55;;
23676;SDS011;31493;49.058;12.190;2023-04-20T07:16:56;17.85;;;13.90;;
23676;SDS011;31493;49.058;12.190;2023-04-20T07:19:23;18.70;;;13.18;;
23676;SDS011;31493;49.058;12.190;2023-04-20T07:21:50;17.92;;;12.85;;
23676;SDS011;31493;49.058;12.190;2023-04-20T07:24:18;17.52;;;13.38;;
23676;SDS011;31493;49.058;12.190;2023-04-20T07:26:45;20.17;;;13.18;;
23676;SDS011;31493;49.058;12.190;2023-04-20T07:29:12;19.23;;;13.48;;
23676;SDS011;31493;49.058;12.190;2023-04-20T07:31:40;18.73;;;13.98;;
23676;SDS011;31493;49.058;12.190;2023-04-20T07:34:07;18.42;;;13.25;;
23676;SDS011;31493;49.058;12.190;2023-04-20T07:36:34;18.65;;;13.73;;
23676;SDS011;31493;49.058;12.190;2023-04-20T07:39:03;17.77;;;13.40;;
23676;SDS011;31493;49.058;12.190;2023-04-20T07:41:32;19.23;;;12.95;;
23676;SDS011;31493;49.058;12.190;2023-04-20T07:43:59;17.92;;;13.20;;
23676;SDS011;31493;49.058;12.190;2023-04-20T07:46:26;18.98;;;12.65;;
23676;SDS011;31493;49.058;12.190;2023-04-20T07:48:53;18.63;;;13.45;;
23676;SDS011;31493;49.058;12.190;2023-04-20T07:51:21;19.52;;;13.55;;
23676;SDS011;31493;49.058;12.190;2023-04-20T07:53:47;18.60;;;12.52;;
23676;SDS011;31493;49.058;12.190;2023-04-20T07:56:14;18.33;;;13.35;;
23676;SDS011;31493;49.058;12.190;2023-04-20T07:58:43;19.77;;;12.20;;
23676;SDS011;31493;49.058;12.190;2023-04-20T08:01:10;17.58;;;12.88;;
23676;SDS011;31493;49.058;12.190;2023-04-20T08:03:37;16.27;;;11.40;;
23676;SDS011;31493;49.058;12.190;2023-04-20T08:06:04;17.13;;;12.00;;
23676;SDS011;31493;49.058;12.190;2023-04-20T08:08:31;19.42;;;13.55;;
23676;SDS011;31493;49.058;12.190;2023-04-20T08:10:58;16.40;;;12.48;;
23676;SDS011;31493;49.058;12.190;2023-04-20T08:13:26;18.60;;;13.38;;
23676;SDS011;31493;49.058;12.190;2023-04-20T08:15:54;19.38;;;13.52;;
23676;SDS011;31493;49.058;12.190;2023-04-20T08:18:21;19.95;;;14.60;;
23676;SDS011;31493;49.058;12.190;2023-04-20T08:20:48;19.85;;;13.80;;
23676;SDS011;31493;49.058;12.190;2023-04-20T08:23:15;19.55;;;13.57;;
23676;SDS011;31493;49.058;12.190;2023-04-20T08:25:42;21.73;;;13.85;;
23676;SDS011;31493;49.058;12.190;2023-04-20T08:28:09;20.27;;;13.32;;
23676;SDS011;31493;49.058;12.190;2023-04-20T08:30:37;22.63;;;14.65;;
23676;SDS011;31493;49.058;12.190;2023-04-20T08:33:06;20.73;;;13.73;;
23676;SDS011;31493;49.058;12.190;2023-04-20T08:35:33;22.08;;;15.20;;
23676;SDS011;31493;49.058;12.190;2023-04-20T08:38:00;21.13;;;14.40;;
23676;SDS011;31493;49.058;12.190;2023-04-20T08:40:28;21.40;;;14.68;;
23676;SDS011;31493;49.058;12.190;2023-04-20T08:42:56;23.50;;;13.80;;
23676;SDS011;31493;49.058;12.190;2023-04-20T08:45:24;20.52;;;13.82;;
23676;SDS011;31493;49.058;12.190;2023-04-20T08:47:51;22.20;;;14.02;;
23676;SDS011;31493;49.058;12.190;2023-04-20T08:50:20;21.52;;;15.07;;
23676;SDS011;31493;49.058;12.190;2023-04-20T08:52:47;21.88;;;14.30;;
23676;SDS011;31493;49.058;12.190;2023-04-20T08:55:14;18.95;;;13.13;;
23676;SDS011;31493;49.058;12.190;2023-04-20T08:57:42;20.85;;;14.48;;
23676;SDS011;31493;49.058;12.190;2023-04-20T09:00:09;19.13;;;12.85;;
23676;SDS011;31493;49.058;12.190;2023-04-20T09:02:46;18.67;;;13.30;;
23676;SDS011;31493;49.058;12.190;2023-04-20T09:05:14;21.13;;;13.30;;
23676;SDS011;31493;49.058;12.190;2023-04-20T09:07:50;27.80;;;19.08;;
23676;SDS011;31493;49.058;12.190;2023-04-20T09:10:18;20.83;;;13.73;;
23676;SDS011;31493;49.058;12.190;2023-04-20T09:12:45;22.08;;;14.80;;
23676;SDS011;31493;49.058;12.190;2023-04-20T09:15:22;19.63;;;13.68;;
23676;SDS011;31493;49.058;12.190;2023-04-20T09:17:50;20.10;;;14.23;;
23676;SDS011;31493;49.058;12.190;2023-04-20T09:20:25;24.30;;;16.95;;
23676;SDS011;31493;49.058;12.190;2023-04-20T09:22:55;26.90;;;19.30;;
23676;SDS011;31493;49.058;12.190;2023-04-20T09:25:22;20.13;;;14.45;;
23676;SDS011;31493;49.058;12.190;2023-04-20T09:30:21;20.00;;;13.65;;
23676;SDS011;31493;49.058;12.190;2023-04-20T09:32:48;20.45;;;13.57;;
23676;SDS011;31493;49.058;12.190;2023-04-20T09:35:26;22.55;;;14.45;;
23676;SDS011;31493;49.058;12.190;2023-04-20T09:37:55;19.90;;;13.60;;
23676;SDS011;31493;49.058;12.190;2023-04-20T09:40:22;19.88;;;12.95;;
23676;SDS011;31493;49.058;12.190;2023-04-20T09:42:52;17.50;;;12.30;;
23676;SDS011;31493;49.058;12.190;2023-04-20T09:45:19;15.88;;;10.63;;
23676;SDS011;31493;49.058;12.190;2023-04-20T09:47:46;14.80;;;10.25;;
23676;SDS011;31493;49.058;12.190;2023-04-20T09:50:14;17.40;;;12.18;;
23676;SDS011;31493;49.058;12.190;2023-04-20T09:52:42;16.05;;;10.63;;
23676;SDS011;31493;49.058;12.190;2023-04-20T09:55:14;14.35;;;10.25;;
23676;SDS011;31493;49.058;12.190;2023-04-20T09:57:42;13.95;;;9.60;;
23676;SDS011;31493;49.058;12.190;2023-04-20T10:00:10;15.20;;;10.13;;
23676;SDS011;31493;49.058;12.190;2023-04-20T10:02:38;13.43;;;9.80;;
23676;SDS011;31493;49.058;12.190;2023-04-20T10:05:06;13.30;;;10.05;;
23676;SDS011;31493;49.058;12.190;2023-04-20T10:07:33;15.20;;;11.30;;
23676;SDS011;31493;49.058;12.190;2023-04-20T10:10:04;15.57;;;11.48;;
23676;SDS011;31493;49.058;12.190;2023-04-20T10:12:34;14.65;;;9.48;;
23676;SDS011;31493;49.058;12.190;2023-04-20T10:15:12;14.95;;;10.10;;
23676;SDS011;31493;49.058;12.190;2023-04-20T10:17:39;16.00;;;10.02;;
23676;SDS011;31493;49.058;12.190;2023-04-20T10:20:16;14.57;;;9.80;;
23676;SDS011;31493;49.058;12.190;2023-04-20T10:22:45;11.90;;;9.13;;
23676;SDS011;31493;49.058;12.190;2023-04-20T10:25:16;14.02;;;9.88;;
23676;SDS011;31493;49.058;12.190;2023-04-20T10:27:52;14.73;;;9.70;;
23676;SDS011;31493;49.058;12.190;2023-04-20T10:30:21;14.02;;;9.90;;
23676;SDS011;31493;49.058;12.190;2023-04-20T10:32:49;12.87;;;9.27;;
23676;SDS011;31493;49.058;12.190;2023-04-20T10:35:16;12.18;;;9.50;;
23676;SDS011;31493;49.058;12.190;2023-04-20T10:37:46;14.82;;;9.32;;
23676;SDS011;31493;49.058;12.190;2023-04-20T10:40:14;11.18;;;8.90;;
23676;SDS011;31493;49.058;12.190;2023-04-20T10:42:42;12.95;;;9.60;;
23676;SDS011;31493;49.058;12.190;2023-04-20T10:45:11;11.93;;;8.55;;
23676;SDS011;31493;49.058;12.190;2023-04-20T10:50:07;12.52;;;8.52;;
23676;SDS011;31493;49.058;12.190;2023-04-20T10:55:02;9.73;;;7.93;;
23676;SDS011;31493;49.058;12.190;2023-04-20T10:57:31;10.30;;;8.10;;
23676;SDS011;31493;49.058;12.190;2023-04-20T10:59:59;10.23;;;8.15;;
23676;SDS011;31493;49.058;12.190;2023-04-20T11:02:27;9.35;;;7.68;;
23676;SDS011;31493;49.058;12.190;2023-04-20T11:04:54;11.50;;;7.97;;
23676;SDS011;31493;49.058;12.190;2023-04-20T11:07:25;11.15;;;8.30;;
23676;SDS011;31493;49.058;12.190;2023-04-20T11:09:52;10.77;;;8.00;;
23676;SDS011;31493;49.058;12.190;2023-04-20T11:12:20;10.80;;;7.55;;
23676;SDS011;31493;49.058;12.190;2023-04-20T11:14:51;13.48;;;10.65;;
23676;SDS011;31493;49.058;12.190;2023-04-20T11:17:19;11.32;;;8.07;;
23676;SDS011;31493;49.058;12.190;2023-04-20T11:19:48;10.13;;;7.70;;
23676;SDS011;31493;49.058;12.190;2023-04-20T11:22:21;11.32;;;8.30;;
23676;SDS011;31493;49.058;12.190;2023-04-20T11:24:48;11.48;;;8.02;;
23676;SDS011;31493;49.058;12.190;2023-04-20T11:27:19;9.65;;;7.88;;
23676;SDS011;31493;49.058;12.190;2023-04-20T11:29:54;12.77;;;8.77;;
23676;SDS011;31493;49.058;12.190;2023-04-20T11:32:22;9.57;;;6.43;;
23676;SDS011;31493;49.058;12.190;2023-04-20T11:34:58;7.35;;;5.85;;
23676;SDS011;31493;49.058;12.190;2023-04-20T11:37:26;12.57;;;5.60;;
23676;SDS011;31493;49.058;12.190;2023-04-20T11:40:00;7.85;;;6.18;;
23676;SDS011;31493;49.058;12.190;2023-04-20T11:42:30;8.25;;;6.63;;
23676;SDS011;31493;49.058;12.190;2023-04-20T11:44:57;6.82;;;6.07;;
23676;SDS011;31493;49.058;12.190;2023-04-20T11:47:24;8.10;;;6.25;;
23676;SDS011;31493;49.058;12.190;2023-04-20T11:49:52;9.63;;;6.95;;
23676;SDS011;31493;49.058;12.190;2023-04-20T11:52:20;8.73;;;6.80;;
23676;SDS011;31493;49.058;12.190;2023-04-20T11:54:47;7.35;;;5.95;;
23676;SDS011;31493;49.058;12.190;2023-04-20T11:57:15;8.98;;;7.00;;
23676;SDS011;31493;49.058;12.190;2023-04-20T11:59:42;7.45;;;6.13;;
23676;SDS011;31493;49.058;12.190;2023-04-20T12:02:12;7.85;;;6.10;;
23676;SDS011;31493;49.058;12.190;2023-04-20T12:04:41;9.25;;;7.45;;
23676;SDS011;31493;49.058;12.190;2023-04-20T12:09:37;7.30;;;6.32;;
23676;SDS011;31493;49.058;12.190;2023-04-20T12:12:05;9.80;;;7.43;;
23676;SDS011;31493;49.058;12.190;2023-04-20T12:14:33;9.13;;;7.05;;
23676;SDS011;31493;49.058;12.190;2023-04-20T12:17:00;8.40;;;6.65;;
23676;SDS011;31493;49.058;12.190;2023-04-20T12:19:28;8.73;;;7.20;;
23676;SDS011;31493;49.058;12.190;2023-04-20T12:21:55;9.82;;;7.20;;
23676;SDS011;31493;49.058;12.190;2023-04-20T12:24:22;8.70;;;7.18;;
23676;SDS011;31493;49.058;12.190;2023-04-20T12:26:51;13.23;;;9.20;;
23676;SDS011;31493;49.058;12.190;2023-04-20T12:29:19;9.70;;;6.20;;
23676;SDS011;31493;49.058;12.190;2023-04-20T12:31:46;7.90;;;5.88;;
23676;SDS011;31493;49.058;12.190;2023-04-20T12:34:13;10.73;;;7.15;;
23676;SDS011;31493;49.058;12.190;2023-04-20T12:36:40;11.60;;;8.40;;
23676;SDS011;31493;49.058;12.190;2023-04-20T12:39:07;10.18;;;7.60;;
23676;SDS011;31493;49.058;12.190;2023-04-20T12:44:04;9.80;;;7.25;;
23676;SDS011;31493;49.058;12.190;2023-04-20T12:46:31;8.90;;;7.40;;
23676;SDS011;31493;49.058;12.190;2023-04-20T12:48:58;8.93;;;6.63;;
23676;SDS011;31493;49.058;12.190;2023-04-20T12:51:25;9.18;;;7.40;;
23676;SDS011;31493;49.058;12.190;2023-04-20T12:53:52;12.15;;;9.82;;
23676;SDS011;31493;49.058;12.190;2023-04-20T12:56:19;9.80;;;7.35;;
23676;SDS011;31493;49.058;12.190;2023-04-20T12:58:46;11.20;;;8.18;;
23676;SDS011;31493;49.058;12.190;2023-04-20T13:01:15;10.77;;;7.95;;
23676;SDS011;31493;49.058;12.190;2023-04-20T13:03:42;8.90;;;6.90;;
23676;SDS011;31493;49.058;12.190;2023-04-20T13:06:09;10.38;;;7.30;;
23676;SDS011;31493;49.058;12.190;2023-04-20T13:08:37;12.20;;;7.32;;
23676;SDS011;31493;49.058;12.190;2023-04-20T13:11:04;9.13;;;7.05;;
23676;SDS011;31493;49.058;12.190;2023-04-20T13:13:31;11.88;;;8.85;;
23676;SDS011;31493;49.058;12.190;2023-04-20T13:15:58;8.80;;;6.80;;
23676;SDS011;31493;49.058;12.190;2023-04-20T13:18:26;10.40;;;6.95;;
23676;SDS011;31493;49.058;12.190;2023-04-20T13:20:53;8.25;;;6.30;;
23676;SDS011;31493;49.058;12.190;2023-04-20T13:23:20;8.38;;;6.35;;
23676;SDS011;31493;49.058;12.190;2023-04-20T13:25:47;9.63;;;6.93;;
23676;SDS011;31493;49.058;12.190;2023-04-20T13:28:16;8.50;;;6.80;;
23676;SDS011;31493;49.058;12.190;2023-04-20T13:30:43;11.07;;;7.18;;
23676;SDS011;31493;49.058;12.190;2023-04-20T13:33:10;9.98;;;7.10;;
23676;SDS011;31493;49.058;12.190;2023-04-20T13:35:38;9.68;;;6.53;;
23676;SDS011;31493;49.058;12.190;2023-04-20T13:38:06;11.48;;;7.43;;
23676;SDS011;31493;49.058;12.190;2023-04-20T13:40:33;11.25;;;7.90;;
23676;SDS011;31493;49.058;12.190;2023-04-20T13:43:00;11.65;;;7.40;;
23676;SDS011;31493;49.058;12.190;2023-04-20T13:45:27;10.35;;;7.45;;
23676;SDS011;31493;49.058;12.190;2023-04-20T13:47:54;10.77;;;7.07;;
23676;SDS011;31493;49.058;12.190;2023-04-20T13:50:21;9.60;;;6.93;;
23676;SDS011;31493;49.058;12.190;2023-04-20T13:52:49;10.00;;;7.18;;
23676;SDS011;31493;49.058;12.190;2023-04-20T13:55:17;12.70;;;9.27;;
23676;SDS011;31493;49.058;12.190;2023-04-20T13:57:45;12.65;;;8.27;;
23676;SDS011;31493;49.058;12.190;2023-04-20T14:00:12;10.85;;;7.50;;
23676;SDS011;31493;49.058;12.190;2023-04-20T14:02:39;13.68;;;9.20;;
23676;SDS011;31493;49.058;12.190;2023-04-20T14:05:07;13.32;;;9.07;;
23676;SDS011;31493;49.058;12.190;2023-04-20T14:07:34;14.02;;;9.93;;
23676;SDS011;31493;49.058;12.190;2023-04-20T14:10:03;12.43;;;9.18;;
23676;SDS011;31493;49.058;12.190;2023-04-20T14:12:31;15.63;;;9.27;;
23676;SDS011;31493;49.058;12.190;2023-04-20T14:14:59;13.90;;;9.65;;
23676;SDS011;31493;49.058;12.190;2023-04-20T14:17:26;13.93;;;9.73;;
23676;SDS011;31493;49.058;12.190;2023-04-20T14:19:54;15.45;;;10.57;;
23676;SDS011;31493;49.058;12.190;2023-04-20T14:22:21;14.57;;;10.07;;
23676;SDS011;31493;49.058;12.190;2023-04-20T14:24:48;16.40;;;10.00;;
23676;SDS011;31493;49.058;12.190;2023-04-20T14:27:16;14.55;;;10.55;;
23676;SDS011;31493;49.058;12.190;2023-04-20T14:29:43;14.90;;;10.18;;
23676;SDS011;31493;49.058;12.190;2023-04-20T14:32:11;15.88;;;10.98;;